sensor_id;sensor_type;location;lat;lon;timestamp;P1;durP1;ratioP1;P2;durP2;ratioP2
77701;SDS011;66868;42.708;23.404;2023-07-20T00:00:47;5.97;;;2.15;;
77701;SDS011;66868;42.708;23.404;2023-07-20T00:03:18;5.80;;;2.38;;
77701;SDS011;66868;42.708;23.404;2023-07-20T00:05:50;3.97;;;2.00;;
77701;SDS011;66868;42.708;23.404;2023-07-20T00:08:16;5.95;;;2.45;;
77701;SDS011;66868;42.708;23.404;2023-07-20T00:10:42;2.97;;;2.00;;
77701;SDS011;66868;42.708;23.404;2023-07-20T00:13:08;4.93;;;2.30;;
77701;SDS011;66868;42.708;23.404;2023-07-20T00:15:34;10.57;;;2.13;;
77701;SDS011;66868;42.708;23.404;2023-07-20T00:18:00;7.82;;;2.47;;
77701;SDS011;66868;42.708;23.404;2023-07-20T00:20:26;8.27;;;2.58;;
77701;SDS011;66868;42.708;23.404;2023-07-20T00:22:51;8.02;;;2.30;;
77701;SDS011;66868;42.708;23.404;2023-07-20T00:25:17;4.78;;;2.25;;
77701;SDS011;66868;42.708;23.404;2023-07-20T00:27:43;6.40;;;1.77;;
77701;SDS011;66868;42.708;23.404;2023-07-20T00:30:08;8.60;;;2.47;;
77701;SDS011;66868;42.708;23.404;2023-07-20T00:32:34;11.45;;;2.47;;
77701;SDS011;66868;42.708;23.404;2023-07-20T00:34:59;9.35;;;2.47;;
77701;SDS011;66868;42.708;23.404;2023-07-20T00:37:25;8.75;;;2.15;;
77701;SDS011;66868;42.708;23.404;2023-07-20T00:39:50;9.82;;;2.60;;
77701;SDS011;66868;42.708;23.404;2023-07-20T00:42:16;6.57;;;2.00;;
77701;SDS011;66868;42.708;23.404;2023-07-20T00:44:41;9.35;;;2.67;;
77701;SDS011;66868;42.708;23.404;2023-07-20T00:47:07;9.65;;;2.30;;
77701;SDS011;66868;42.708;23.404;2023-07-20T00:49:32;3.50;;;2.30;;
77701;SDS011;66868;42.708;23.404;2023-07-20T00:51:58;5.55;;;2.17;;
77701;SDS011;66868;42.708;23.404;2023-07-20T00:54:26;5.43;;;2.42;;
77701;SDS011;66868;42.708;23.404;2023-07-20T00:56:52;4.10;;;2.10;;
77701;SDS011;66868;42.708;23.404;2023-07-20T00:59:18;7.82;;;2.60;;
77701;SDS011;66868;42.708;23.404;2023-07-20T01:01:44;15.20;;;2.70;;
77701;SDS011;66868;42.708;23.404;2023-07-20T01:04:09;9.05;;;2.22;;
77701;SDS011;66868;42.708;23.404;2023-07-20T01:09:02;3.97;;;2.38;;
77701;SDS011;66868;42.708;23.404;2023-07-20T01:11:40;4.10;;;2.38;;
77701;SDS011;66868;42.708;23.404;2023-07-20T01:14:11;3.13;;;2.50;;
77701;SDS011;66868;42.708;23.404;2023-07-20T01:16:37;4.32;;;2.58;;
77701;SDS011;66868;42.708;23.404;2023-07-20T01:19:02;7.85;;;3.03;;
77701;SDS011;66868;42.708;23.404;2023-07-20T01:21:31;5.57;;;2.40;;
77701;SDS011;66868;42.708;23.404;2023-07-20T01:30:31;6.20;;;2.30;;
77701;SDS011;66868;42.708;23.404;2023-07-20T01:33:00;11.82;;;2.58;;
77701;SDS011;66868;42.708;23.404;2023-07-20T01:35:27;5.95;;;2.33;;
77701;SDS011;66868;42.708;23.404;2023-07-20T01:37:55;12.88;;;2.75;;
77701;SDS011;66868;42.708;23.404;2023-07-20T01:40:22;7.30;;;2.78;;
77701;SDS011;66868;42.708;23.404;2023-07-20T01:42:50;7.13;;;2.78;;
77701;SDS011;66868;42.708;23.404;2023-07-20T01:45:16;9.90;;;3.33;;
77701;SDS011;66868;42.708;23.404;2023-07-20T01:47:42;6.28;;;2.85;;
77701;SDS011;66868;42.708;23.404;2023-07-20T01:50:08;10.75;;;3.05;;
77701;SDS011;66868;42.708;23.404;2023-07-20T01:52:34;5.85;;;2.38;;
77701;SDS011;66868;42.708;23.404;2023-07-20T01:54:59;7.30;;;2.60;;
77701;SDS011;66868;42.708;23.404;2023-07-20T01:57:24;7.78;;;2.65;;
77701;SDS011;66868;42.708;23.404;2023-07-20T01:59:50;10.88;;;2.53;;
77701;SDS011;66868;42.708;23.404;2023-07-20T02:02:15;9.82;;;2.83;;
77701;SDS011;66868;42.708;23.404;2023-07-20T02:04:41;14.80;;;2.92;;
77701;SDS011;66868;42.708;23.404;2023-07-20T02:07:06;16.83;;;3.28;;
77701;SDS011;66868;42.708;23.404;2023-07-20T02:09:31;4.93;;;2.55;;
77701;SDS011;66868;42.708;23.404;2023-07-20T02:11:57;8.88;;;2.53;;
77701;SDS011;66868;42.708;23.404;2023-07-20T02:14:22;6.93;;;2.80;;
77701;SDS011;66868;42.708;23.404;2023-07-20T02:16:48;9.90;;;2.67;;
77701;SDS011;66868;42.708;23.404;2023-07-20T02:19:17;5.22;;;2.70;;
77701;SDS011;66868;42.708;23.404;2023-07-20T02:21:43;5.10;;;3.13;;
77701;SDS011;66868;42.708;23.404;2023-07-20T02:24:09;12.75;;;3.40;;
77701;SDS011;66868;42.708;23.404;2023-07-20T02:26:34;12.43;;;3.63;;
77701;SDS011;66868;42.708;23.404;2023-07-20T02:28:59;8.82;;;3.15;;
77701;SDS011;66868;42.708;23.404;2023-07-20T02:31:25;8.38;;;3.58;;
77701;SDS011;66868;42.708;23.404;2023-07-20T02:33:50;7.68;;;3.03;;
77701;SDS011;66868;42.708;23.404;2023-07-20T02:36:16;9.52;;;3.60;;
77701;SDS011;66868;42.708;23.404;2023-07-20T02:38:42;13.63;;;4.07;;
77701;SDS011;66868;42.708;23.404;2023-07-20T02:41:07;12.50;;;4.68;;
77701;SDS011;66868;42.708;23.404;2023-07-20T02:43:33;11.38;;;4.63;;
77701;SDS011;66868;42.708;23.404;2023-07-20T02:45:58;14.20;;;5.13;;
77701;SDS011;66868;42.708;23.404;2023-07-20T02:48:23;14.85;;;4.70;;
77701;SDS011;66868;42.708;23.404;2023-07-20T02:50:49;17.05;;;4.75;;
77701;SDS011;66868;42.708;23.404;2023-07-20T02:53:14;8.88;;;3.65;;
77701;SDS011;66868;42.708;23.404;2023-07-20T02:55:40;10.40;;;3.42;;
77701;SDS011;66868;42.708;23.404;2023-07-20T02:58:05;10.10;;;3.90;;
77701;SDS011;66868;42.708;23.404;2023-07-20T03:00:30;11.48;;;3.88;;
77701;SDS011;66868;42.708;23.404;2023-07-20T03:02:56;15.38;;;4.35;;
77701;SDS011;66868;42.708;23.404;2023-07-20T03:05:22;15.30;;;3.28;;
77701;SDS011;66868;42.708;23.404;2023-07-20T03:07:50;10.50;;;3.45;;
77701;SDS011;66868;42.708;23.404;2023-07-20T03:10:15;8.27;;;3.15;;
77701;SDS011;66868;42.708;23.404;2023-07-20T03:12:41;10.60;;;3.03;;
77701;SDS011;66868;42.708;23.404;2023-07-20T03:15:07;6.30;;;3.03;;
77701;SDS011;66868;42.708;23.404;2023-07-20T03:17:32;7.82;;;2.50;;
77701;SDS011;66868;42.708;23.404;2023-07-20T03:19:58;3.65;;;2.40;;
77701;SDS011;66868;42.708;23.404;2023-07-20T03:22:24;10.45;;;3.08;;
77701;SDS011;66868;42.708;23.404;2023-07-20T03:24:50;8.95;;;3.17;;
77701;SDS011;66868;42.708;23.404;2023-07-20T03:27:17;7.68;;;3.35;;
77701;SDS011;66868;42.708;23.404;2023-07-20T03:29:43;10.23;;;3.63;;
77701;SDS011;66868;42.708;23.404;2023-07-20T03:32:09;7.13;;;3.10;;
77701;SDS011;66868;42.708;23.404;2023-07-20T03:34:34;7.80;;;3.22;;
77701;SDS011;66868;42.708;23.404;2023-07-20T03:37:00;12.32;;;2.97;;
77701;SDS011;66868;42.708;23.404;2023-07-20T03:39:26;7.05;;;2.95;;
77701;SDS011;66868;42.708;23.404;2023-07-20T03:41:51;6.18;;;3.63;;
77701;SDS011;66868;42.708;23.404;2023-07-20T03:44:17;6.68;;;3.15;;
77701;SDS011;66868;42.708;23.404;2023-07-20T03:46:42;6.22;;;3.28;;
77701;SDS011;66868;42.708;23.404;2023-07-20T03:49:08;9.57;;;3.67;;
77701;SDS011;66868;42.708;23.404;2023-07-20T03:51:34;9.88;;;3.47;;
77701;SDS011;66868;42.708;23.404;2023-07-20T03:54:00;14.02;;;3.53;;
77701;SDS011;66868;42.708;23.404;2023-07-20T03:56:25;3.33;;;2.97;;
77701;SDS011;66868;42.708;23.404;2023-07-20T03:58:51;12.63;;;3.45;;
77701;SDS011;66868;42.708;23.404;2023-07-20T04:01:16;10.50;;;3.33;;
77701;SDS011;66868;42.708;23.404;2023-07-20T04:03:42;5.63;;;3.00;;
77701;SDS011;66868;42.708;23.404;2023-07-20T04:06:08;11.65;;;3.42;;
77701;SDS011;66868;42.708;23.404;2023-07-20T04:08:34;7.82;;;3.47;;
77701;SDS011;66868;42.708;23.404;2023-07-20T04:11:01;9.07;;;3.13;;
77701;SDS011;66868;42.708;23.404;2023-07-20T04:13:27;10.38;;;3.67;;
77701;SDS011;66868;42.708;23.404;2023-07-20T04:15:53;9.60;;;3.50;;
77701;SDS011;66868;42.708;23.404;2023-07-20T04:18:18;5.50;;;3.58;;
77701;SDS011;66868;42.708;23.404;2023-07-20T04:20:43;9.90;;;4.03;;
77701;SDS011;66868;42.708;23.404;2023-07-20T04:23:09;14.85;;;3.63;;
77701;SDS011;66868;42.708;23.404;2023-07-20T04:25:34;5.60;;;3.30;;
77701;SDS011;66868;42.708;23.404;2023-07-20T04:28:06;9.95;;;4.45;;
77701;SDS011;66868;42.708;23.404;2023-07-20T04:30:35;11.40;;;3.85;;
77701;SDS011;66868;42.708;23.404;2023-07-20T04:33:02;11.95;;;3.65;;
77701;SDS011;66868;42.708;23.404;2023-07-20T04:38:19;10.02;;;3.45;;
77701;SDS011;66868;42.708;23.404;2023-07-20T04:40:45;10.90;;;4.00;;
77701;SDS011;66868;42.708;23.404;2023-07-20T04:43:11;10.88;;;4.10;;
77701;SDS011;66868;42.708;23.404;2023-07-20T04:45:36;9.98;;;4.05;;
77701;SDS011;66868;42.708;23.404;2023-07-20T04:48:02;11.00;;;3.97;;
77701;SDS011;66868;42.708;23.404;2023-07-20T04:50:27;15.10;;;4.40;;
77701;SDS011;66868;42.708;23.404;2023-07-20T04:52:53;15.07;;;4.13;;
77701;SDS011;66868;42.708;23.404;2023-07-20T04:55:18;14.77;;;4.20;;
77701;SDS011;66868;42.708;23.404;2023-07-20T04:57:44;11.70;;;3.60;;
77701;SDS011;66868;42.708;23.404;2023-07-20T05:00:10;7.43;;;4.30;;
77701;SDS011;66868;42.708;23.404;2023-07-20T05:02:39;15.88;;;4.05;;
77701;SDS011;66868;42.708;23.404;2023-07-20T05:05:04;8.30;;;3.72;;
77701;SDS011;66868;42.708;23.404;2023-07-20T05:07:40;12.40;;;3.38;;
77701;SDS011;66868;42.708;23.404;2023-07-20T05:10:06;5.90;;;3.33;;
77701;SDS011;66868;42.708;23.404;2023-07-20T05:12:32;12.35;;;3.50;;
77701;SDS011;66868;42.708;23.404;2023-07-20T05:14:57;13.50;;;3.72;;
77701;SDS011;66868;42.708;23.404;2023-07-20T05:17:23;15.07;;;4.03;;
77701;SDS011;66868;42.708;23.404;2023-07-20T05:19:49;12.10;;;4.13;;
77701;SDS011;66868;42.708;23.404;2023-07-20T05:22:15;11.20;;;4.00;;
77701;SDS011;66868;42.708;23.404;2023-07-20T05:24:41;8.93;;;3.78;;
77701;SDS011;66868;42.708;23.404;2023-07-20T05:27:09;14.35;;;4.10;;
77701;SDS011;66868;42.708;23.404;2023-07-20T05:29:34;7.55;;;3.85;;
77701;SDS011;66868;42.708;23.404;2023-07-20T05:31:59;10.20;;;3.75;;
77701;SDS011;66868;42.708;23.404;2023-07-20T05:34:25;5.30;;;3.17;;
77701;SDS011;66868;42.708;23.404;2023-07-20T05:37:08;7.30;;;4.28;;
77701;SDS011;66868;42.708;23.404;2023-07-20T05:39:34;9.45;;;3.90;;
77701;SDS011;66868;42.708;23.404;2023-07-20T05:41:59;6.90;;;3.08;;
77701;SDS011;66868;42.708;23.404;2023-07-20T05:44:25;8.13;;;3.88;;
77701;SDS011;66868;42.708;23.404;2023-07-20T05:46:50;8.95;;;3.67;;
77701;SDS011;66868;42.708;23.404;2023-07-20T05:49:15;22.90;;;4.32;;
77701;SDS011;66868;42.708;23.404;2023-07-20T05:51:41;6.25;;;3.75;;
77701;SDS011;66868;42.708;23.404;2023-07-20T05:54:06;16.48;;;3.80;;
77701;SDS011;66868;42.708;23.404;2023-07-20T05:56:32;12.13;;;4.60;;
77701;SDS011;66868;42.708;23.404;2023-07-20T05:58:57;12.82;;;4.55;;
77701;SDS011;66868;42.708;23.404;2023-07-20T06:01:22;9.60;;;3.95;;
77701;SDS011;66868;42.708;23.404;2023-07-20T06:03:48;8.98;;;4.68;;
77701;SDS011;66868;42.708;23.404;2023-07-20T06:06:13;7.53;;;4.15;;
77701;SDS011;66868;42.708;23.404;2023-07-20T06:08:39;12.95;;;4.28;;
77701;SDS011;66868;42.708;23.404;2023-07-20T06:11:05;8.43;;;4.07;;
77701;SDS011;66868;42.708;23.404;2023-07-20T06:13:30;10.73;;;4.53;;
77701;SDS011;66868;42.708;23.404;2023-07-20T06:15:56;6.32;;;4.13;;
77701;SDS011;66868;42.708;23.404;2023-07-20T06:18:24;14.90;;;4.10;;
77701;SDS011;66868;42.708;23.404;2023-07-20T06:20:50;22.38;;;3.95;;
77701;SDS011;66868;42.708;23.404;2023-07-20T06:23:16;10.23;;;3.97;;
77701;SDS011;66868;42.708;23.404;2023-07-20T06:25:43;7.18;;;3.67;;
77701;SDS011;66868;42.708;23.404;2023-07-20T06:28:09;9.48;;;3.33;;
77701;SDS011;66868;42.708;23.404;2023-07-20T06:30:34;5.53;;;3.88;;
77701;SDS011;66868;42.708;23.404;2023-07-20T06:33:00;10.38;;;3.80;;
77701;SDS011;66868;42.708;23.404;2023-07-20T06:35:25;12.18;;;3.75;;
77701;SDS011;66868;42.708;23.404;2023-07-20T06:37:51;10.82;;;4.45;;
77701;SDS011;66868;42.708;23.404;2023-07-20T06:40:16;14.32;;;4.38;;
77701;SDS011;66868;42.708;23.404;2023-07-20T06:42:42;7.43;;;3.95;;
77701;SDS011;66868;42.708;23.404;2023-07-20T06:45:08;20.27;;;4.50;;
77701;SDS011;66868;42.708;23.404;2023-07-20T06:47:34;9.98;;;3.70;;
77701;SDS011;66868;42.708;23.404;2023-07-20T06:49:59;9.55;;;5.00;;
77701;SDS011;66868;42.708;23.404;2023-07-20T06:52:25;20.00;;;4.30;;
77701;SDS011;66868;42.708;23.404;2023-07-20T06:54:50;12.73;;;4.70;;
77701;SDS011;66868;42.708;23.404;2023-07-20T06:57:16;9.55;;;4.22;;
77701;SDS011;66868;42.708;23.404;2023-07-20T06:59:41;12.88;;;4.18;;
77701;SDS011;66868;42.708;23.404;2023-07-20T07:02:07;7.22;;;3.55;;
77701;SDS011;66868;42.708;23.404;2023-07-20T07:04:33;7.32;;;3.70;;
77701;SDS011;66868;42.708;23.404;2023-07-20T07:06:59;9.18;;;3.70;;
77701;SDS011;66868;42.708;23.404;2023-07-20T07:09:25;9.30;;;3.92;;
77701;SDS011;66868;42.708;23.404;2023-07-20T07:11:50;7.05;;;3.65;;
77701;SDS011;66868;42.708;23.404;2023-07-20T07:14:15;14.93;;;4.30;;
77701;SDS011;66868;42.708;23.404;2023-07-20T07:16:41;8.93;;;3.50;;
77701;SDS011;66868;42.708;23.404;2023-07-20T07:19:06;12.05;;;3.92;;
77701;SDS011;66868;42.708;23.404;2023-07-20T07:21:32;8.73;;;3.75;;
77701;SDS011;66868;42.708;23.404;2023-07-20T07:23:57;9.38;;;3.92;;
77701;SDS011;66868;42.708;23.404;2023-07-20T07:26:24;8.13;;;3.65;;
77701;SDS011;66868;42.708;23.404;2023-07-20T07:28:50;11.50;;;4.25;;
77701;SDS011;66868;42.708;23.404;2023-07-20T07:31:15;9.63;;;3.83;;
77701;SDS011;66868;42.708;23.404;2023-07-20T07:33:41;11.05;;;3.35;;
77701;SDS011;66868;42.708;23.404;2023-07-20T07:36:06;8.57;;;3.38;;
77701;SDS011;66868;42.708;23.404;2023-07-20T07:38:32;5.63;;;3.80;;
77701;SDS011;66868;42.708;23.404;2023-07-20T07:40:57;8.00;;;3.55;;
77701;SDS011;66868;42.708;23.404;2023-07-20T07:43:24;7.07;;;4.22;;
77701;SDS011;66868;42.708;23.404;2023-07-20T07:45:49;9.13;;;4.32;;
77701;SDS011;66868;42.708;23.404;2023-07-20T07:48:15;10.50;;;3.53;;
77701;SDS011;66868;42.708;23.404;2023-07-20T07:50:40;5.32;;;3.10;;
77701;SDS011;66868;42.708;23.404;2023-07-20T07:53:06;13.10;;;3.60;;
77701;SDS011;66868;42.708;23.404;2023-07-20T07:55:32;9.30;;;3.40;;
77701;SDS011;66868;42.708;23.404;2023-07-20T07:57:58;7.20;;;4.07;;
77701;SDS011;66868;42.708;23.404;2023-07-20T08:00:23;8.27;;;3.08;;
77701;SDS011;66868;42.708;23.404;2023-07-20T08:02:49;11.88;;;3.50;;
77701;SDS011;66868;42.708;23.404;2023-07-20T08:05:15;13.30;;;3.80;;
77701;SDS011;66868;42.708;23.404;2023-07-20T08:07:41;8.18;;;3.50;;
77701;SDS011;66868;42.708;23.404;2023-07-20T08:10:07;11.50;;;3.72;;
77701;SDS011;66868;42.708;23.404;2023-07-20T08:12:33;9.88;;;3.90;;
77701;SDS011;66868;42.708;23.404;2023-07-20T08:14:58;8.90;;;3.78;;
77701;SDS011;66868;42.708;23.404;2023-07-20T08:17:24;15.40;;;4.47;;
77701;SDS011;66868;42.708;23.404;2023-07-20T08:19:50;9.35;;;4.15;;
77701;SDS011;66868;42.708;23.404;2023-07-20T08:22:15;8.13;;;3.90;;
77701;SDS011;66868;42.708;23.404;2023-07-20T08:24:41;9.82;;;4.05;;
77701;SDS011;66868;42.708;23.404;2023-07-20T08:27:08;14.55;;;4.20;;
77701;SDS011;66868;42.708;23.404;2023-07-20T08:29:35;23.08;;;3.92;;
77701;SDS011;66868;42.708;23.404;2023-07-20T08:32:00;11.25;;;3.08;;
77701;SDS011;66868;42.708;23.404;2023-07-20T08:34:26;7.40;;;3.42;;
77701;SDS011;66868;42.708;23.404;2023-07-20T08:36:52;9.60;;;3.33;;
77701;SDS011;66868;42.708;23.404;2023-07-20T08:39:17;18.65;;;3.15;;
77701;SDS011;66868;42.708;23.404;2023-07-20T08:41:43;10.93;;;3.03;;
77701;SDS011;66868;42.708;23.404;2023-07-20T08:44:09;12.77;;;3.28;;
77701;SDS011;66868;42.708;23.404;2023-07-20T08:46:38;12.35;;;3.45;;
77701;SDS011;66868;42.708;23.404;2023-07-20T08:49:04;13.45;;;3.30;;
77701;SDS011;66868;42.708;23.404;2023-07-20T08:51:30;13.50;;;3.35;;
77701;SDS011;66868;42.708;23.404;2023-07-20T08:53:57;7.57;;;2.63;;
77701;SDS011;66868;42.708;23.404;2023-07-20T08:56:23;7.85;;;2.90;;
77701;SDS011;66868;42.708;23.404;2023-07-20T08:58:51;4.97;;;2.85;;
77701;SDS011;66868;42.708;23.404;2023-07-20T09:01:19;7.65;;;2.53;;
77701;SDS011;66868;42.708;23.404;2023-07-20T09:03:45;8.10;;;2.72;;
77701;SDS011;66868;42.708;23.404;2023-07-20T09:06:11;12.80;;;3.42;;
77701;SDS011;66868;42.708;23.404;2023-07-20T09:08:43;11.85;;;3.20;;
77701;SDS011;66868;42.708;23.404;2023-07-20T09:11:11;11.27;;;2.78;;
77701;SDS011;66868;42.708;23.404;2023-07-20T09:13:38;9.18;;;3.08;;
77701;SDS011;66868;42.708;23.404;2023-07-20T09:16:04;7.85;;;3.25;;
77701;SDS011;66868;42.708;23.404;2023-07-20T09:18:30;10.05;;;3.28;;
77701;SDS011;66868;42.708;23.404;2023-07-20T09:21:03;9.93;;;2.70;;
77701;SDS011;66868;42.708;23.404;2023-07-20T09:23:48;9.80;;;3.08;;
77701;SDS011;66868;42.708;23.404;2023-07-20T09:26:18;10.65;;;2.40;;
77701;SDS011;66868;42.708;23.404;2023-07-20T09:28:44;5.35;;;2.60;;
77701;SDS011;66868;42.708;23.404;2023-07-20T09:31:21;5.15;;;2.83;;
77701;SDS011;66868;42.708;23.404;2023-07-20T09:33:47;8.57;;;2.40;;
77701;SDS011;66868;42.708;23.404;2023-07-20T09:36:13;11.95;;;2.50;;
77701;SDS011;66868;42.708;23.404;2023-07-20T09:38:40;5.78;;;3.55;;
77701;SDS011;66868;42.708;23.404;2023-07-20T09:41:06;8.82;;;2.75;;
77701;SDS011;66868;42.708;23.404;2023-07-20T09:43:33;3.65;;;2.10;;
77701;SDS011;66868;42.708;23.404;2023-07-20T09:45:59;14.57;;;2.83;;
77701;SDS011;66868;42.708;23.404;2023-07-20T09:48:29;14.60;;;2.42;;
77701;SDS011;66868;42.708;23.404;2023-07-20T09:50:57;5.95;;;2.83;;
77701;SDS011;66868;42.708;23.404;2023-07-20T09:53:24;3.58;;;2.40;;
77701;SDS011;66868;42.708;23.404;2023-07-20T09:55:50;9.88;;;2.35;;
77701;SDS011;66868;42.708;23.404;2023-07-20T09:58:18;6.90;;;1.98;;
77701;SDS011;66868;42.708;23.404;2023-07-20T10:00:44;5.78;;;2.38;;
77701;SDS011;66868;42.708;23.404;2023-07-20T10:03:21;5.93;;;2.72;;
77701;SDS011;66868;42.708;23.404;2023-07-20T10:05:48;8.18;;;2.40;;
77701;SDS011;66868;42.708;23.404;2023-07-20T10:08:24;8.25;;;2.38;;
77701;SDS011;66868;42.708;23.404;2023-07-20T10:10:53;5.55;;;2.13;;
77701;SDS011;66868;42.708;23.404;2023-07-20T10:13:20;8.25;;;2.85;;
77701;SDS011;66868;42.708;23.404;2023-07-20T10:15:50;6.07;;;2.35;;
77701;SDS011;66868;42.708;23.404;2023-07-20T10:18:27;5.70;;;2.75;;
77701;SDS011;66868;42.708;23.404;2023-07-20T10:20:56;4.20;;;2.10;;
77701;SDS011;66868;42.708;23.404;2023-07-20T10:23:24;7.28;;;2.28;;
77701;SDS011;66868;42.708;23.404;2023-07-20T10:25:53;6.47;;;2.42;;
77701;SDS011;66868;42.708;23.404;2023-07-20T10:28:19;6.80;;;2.83;;
77701;SDS011;66868;42.708;23.404;2023-07-20T10:30:44;6.63;;;2.70;;
77701;SDS011;66868;42.708;23.404;2023-07-20T10:33:11;4.97;;;2.55;;
77701;SDS011;66868;42.708;23.404;2023-07-20T10:35:56;4.13;;;2.35;;
77701;SDS011;66868;42.708;23.404;2023-07-20T10:41:16;14.45;;;3.78;;
77701;SDS011;66868;42.708;23.404;2023-07-20T10:43:46;7.97;;;2.95;;
77701;SDS011;66868;42.708;23.404;2023-07-20T10:46:13;7.57;;;3.10;;
77701;SDS011;66868;42.708;23.404;2023-07-20T10:51:30;5.03;;;2.50;;
77701;SDS011;66868;42.708;23.404;2023-07-20T10:54:03;8.10;;;2.97;;
77701;SDS011;66868;42.708;23.404;2023-07-20T10:56:28;10.65;;;2.70;;
77701;SDS011;66868;42.708;23.404;2023-07-20T10:59:00;7.20;;;2.13;;
77701;SDS011;66868;42.708;23.404;2023-07-20T11:01:42;8.25;;;2.50;;
77701;SDS011;66868;42.708;23.404;2023-07-20T11:04:10;10.82;;;2.75;;
77701;SDS011;66868;42.708;23.404;2023-07-20T11:06:35;10.20;;;2.47;;
77701;SDS011;66868;42.708;23.404;2023-07-20T11:09:10;8.93;;;2.22;;
77701;SDS011;66868;42.708;23.404;2023-07-20T11:11:40;6.15;;;2.38;;
77701;SDS011;66868;42.708;23.404;2023-07-20T11:17:31;10.23;;;2.80;;
77701;SDS011;66868;42.708;23.404;2023-07-20T11:19:57;8.18;;;2.50;;
77701;SDS011;66868;42.708;23.404;2023-07-20T11:22:25;8.40;;;3.08;;
77701;SDS011;66868;42.708;23.404;2023-07-20T11:24:54;8.98;;;2.58;;
77701;SDS011;66868;42.708;23.404;2023-07-20T11:27:21;10.48;;;2.78;;
77701;SDS011;66868;42.708;23.404;2023-07-20T11:29:47;3.63;;;2.63;;
77701;SDS011;66868;42.708;23.404;2023-07-20T11:32:22;4.82;;;2.15;;
77701;SDS011;66868;42.708;23.404;2023-07-20T11:34:48;10.45;;;2.75;;
77701;SDS011;66868;42.708;23.404;2023-07-20T11:37:14;9.90;;;3.17;;
77701;SDS011;66868;42.708;23.404;2023-07-20T11:39:41;3.50;;;2.50;;
77701;SDS011;66868;42.708;23.404;2023-07-20T11:42:06;6.80;;;3.15;;
77701;SDS011;66868;42.708;23.404;2023-07-20T11:44:32;4.35;;;2.95;;
77701;SDS011;66868;42.708;23.404;2023-07-20T11:47:00;13.75;;;3.72;;
77701;SDS011;66868;42.708;23.404;2023-07-20T11:49:28;9.30;;;3.10;;
77701;SDS011;66868;42.708;23.404;2023-07-20T11:51:53;11.43;;;2.92;;
77701;SDS011;66868;42.708;23.404;2023-07-20T11:54:20;7.53;;;3.08;;
77701;SDS011;66868;42.708;23.404;2023-07-20T11:56:46;14.18;;;3.80;;
77701;SDS011;66868;42.708;23.404;2023-07-20T11:59:11;8.73;;;3.47;;
77701;SDS011;66868;42.708;23.404;2023-07-20T12:01:36;8.20;;;3.78;;
77701;SDS011;66868;42.708;23.404;2023-07-20T12:04:05;7.55;;;3.40;;
77701;SDS011;66868;42.708;23.404;2023-07-20T12:06:31;8.98;;;3.83;;
77701;SDS011;66868;42.708;23.404;2023-07-20T12:08:58;14.68;;;3.75;;
77701;SDS011;66868;42.708;23.404;2023-07-20T12:11:37;9.52;;;3.38;;
77701;SDS011;66868;42.708;23.404;2023-07-20T12:14:07;3.58;;;2.88;;
77701;SDS011;66868;42.708;23.404;2023-07-20T12:16:33;5.97;;;2.90;;
77701;SDS011;66868;42.708;23.404;2023-07-20T12:21:27;8.50;;;2.97;;
77701;SDS011;66868;42.708;23.404;2023-07-20T12:23:53;4.93;;;2.90;;
77701;SDS011;66868;42.708;23.404;2023-07-20T12:26:21;5.55;;;3.03;;
77701;SDS011;66868;42.708;23.404;2023-07-20T12:28:49;7.60;;;2.88;;
77701;SDS011;66868;42.708;23.404;2023-07-20T12:31:14;5.03;;;3.10;;
77701;SDS011;66868;42.708;23.404;2023-07-20T12:33:40;18.17;;;4.20;;
77701;SDS011;66868;42.708;23.404;2023-07-20T12:36:05;5.00;;;2.92;;
77701;SDS011;66868;42.708;23.404;2023-07-20T12:38:31;6.35;;;2.63;;
77701;SDS011;66868;42.708;23.404;2023-07-20T12:40:56;7.07;;;2.95;;
77701;SDS011;66868;42.708;23.404;2023-07-20T12:43:23;10.40;;;2.40;;
77701;SDS011;66868;42.708;23.404;2023-07-20T12:45:48;5.57;;;2.45;;
77701;SDS011;66868;42.708;23.404;2023-07-20T12:48:14;8.15;;;2.53;;
77701;SDS011;66868;42.708;23.404;2023-07-20T12:50:39;5.30;;;2.15;;
77701;SDS011;66868;42.708;23.404;2023-07-20T12:53:05;8.05;;;2.90;;
77701;SDS011;66868;42.708;23.404;2023-07-20T12:55:30;7.85;;;2.63;;
77701;SDS011;66868;42.708;23.404;2023-07-20T12:57:56;3.20;;;2.20;;
77701;SDS011;66868;42.708;23.404;2023-07-20T13:00:21;6.80;;;3.03;;
77701;SDS011;66868;42.708;23.404;2023-07-20T13:02:48;8.68;;;3.22;;
77701;SDS011;66868;42.708;23.404;2023-07-20T13:05:14;5.07;;;2.20;;
77701;SDS011;66868;42.708;23.404;2023-07-20T13:07:40;6.90;;;2.58;;
77701;SDS011;66868;42.708;23.404;2023-07-20T13:10:06;11.13;;;2.90;;
77701;SDS011;66868;42.708;23.404;2023-07-20T13:12:33;7.28;;;2.50;;
77701;SDS011;66868;42.708;23.404;2023-07-20T13:15:00;12.48;;;2.70;;
77701;SDS011;66868;42.708;23.404;2023-07-20T13:17:33;8.23;;;2.78;;
77701;SDS011;66868;42.708;23.404;2023-07-20T13:19:58;6.65;;;2.55;;
77701;SDS011;66868;42.708;23.404;2023-07-20T13:22:24;12.38;;;2.85;;
77701;SDS011;66868;42.708;23.404;2023-07-20T13:24:50;12.88;;;2.97;;
77701;SDS011;66868;42.708;23.404;2023-07-20T13:27:18;12.13;;;2.53;;
77701;SDS011;66868;42.708;23.404;2023-07-20T13:29:44;9.43;;;2.75;;
77701;SDS011;66868;42.708;23.404;2023-07-20T13:32:14;7.63;;;2.40;;
77701;SDS011;66868;42.708;23.404;2023-07-20T13:34:43;5.65;;;3.05;;
77701;SDS011;66868;42.708;23.404;2023-07-20T13:37:09;8.32;;;2.47;;
77701;SDS011;66868;42.708;23.404;2023-07-20T13:39:35;10.50;;;3.03;;
77701;SDS011;66868;42.708;23.404;2023-07-20T13:42:01;5.35;;;2.50;;
77701;SDS011;66868;42.708;23.404;2023-07-20T13:44:30;6.65;;;2.25;;
77701;SDS011;66868;42.708;23.404;2023-07-20T13:46:59;7.22;;;2.22;;
77701;SDS011;66868;42.708;23.404;2023-07-20T13:49:26;9.95;;;1.92;;
77701;SDS011;66868;42.708;23.404;2023-07-20T13:51:52;6.57;;;2.65;;
77701;SDS011;66868;42.708;23.404;2023-07-20T13:54:17;4.18;;;2.10;;
77701;SDS011;66868;42.708;23.404;2023-07-20T13:56:43;4.88;;;2.20;;
77701;SDS011;66868;42.708;23.404;2023-07-20T13:59:08;6.50;;;2.03;;
77701;SDS011;66868;42.708;23.404;2023-07-20T14:01:33;2.85;;;1.75;;
77701;SDS011;66868;42.708;23.404;2023-07-20T14:04:00;8.35;;;2.50;;
77701;SDS011;66868;42.708;23.404;2023-07-20T14:08:54;4.03;;;1.90;;
77701;SDS011;66868;42.708;23.404;2023-07-20T14:11:19;11.23;;;2.55;;
77701;SDS011;66868;42.708;23.404;2023-07-20T14:13:45;7.03;;;2.40;;
77701;SDS011;66868;42.708;23.404;2023-07-20T14:16:10;10.88;;;2.42;;
77701;SDS011;66868;42.708;23.404;2023-07-20T14:18:36;4.22;;;2.28;;
77701;SDS011;66868;42.708;23.404;2023-07-20T14:21:01;5.55;;;2.05;;
77701;SDS011;66868;42.708;23.404;2023-07-20T14:23:31;9.00;;;2.20;;
77701;SDS011;66868;42.708;23.404;2023-07-20T14:25:57;7.57;;;2.13;;
77701;SDS011;66868;42.708;23.404;2023-07-20T14:28:23;9.40;;;2.47;;
77701;SDS011;66868;42.708;23.404;2023-07-20T14:30:48;6.53;;;2.13;;
77701;SDS011;66868;42.708;23.404;2023-07-20T14:33:13;9.30;;;2.92;;
77701;SDS011;66868;42.708;23.404;2023-07-20T14:35:39;7.70;;;1.90;;
77701;SDS011;66868;42.708;23.404;2023-07-20T14:38:04;5.35;;;2.00;;
77701;SDS011;66868;42.708;23.404;2023-07-20T14:40:30;9.50;;;2.60;;
77701;SDS011;66868;42.708;23.404;2023-07-20T14:42:55;6.50;;;2.20;;
77701;SDS011;66868;42.708;23.404;2023-07-20T14:45:21;9.40;;;2.15;;
77701;SDS011;66868;42.708;23.404;2023-07-20T14:47:47;3.55;;;2.00;;
77701;SDS011;66868;42.708;23.404;2023-07-20T14:50:18;5.80;;;2.15;;
77701;SDS011;66868;42.708;23.404;2023-07-20T14:52:44;2.65;;;2.08;;